sensor_id;sensor_type;location;lat;lon;timestamp;temperature;humidity
22747;DHT22;11540;52.130;5.648;2022-08-04T00:00:36;20.70;99.90
22747;DHT22;11540;52.130;5.648;2022-08-04T00:05:52;20.70;99.90
22747;DHT22;11540;52.130;5.648;2022-08-04T00:08:25;20.70;99.90
22747;DHT22;11540;52.130;5.648;2022-08-04T00:10:58;20.70;99.90
22747;DHT22;11540;52.130;5.648;2022-08-04T00:13:25;20.80;99.90
22747;DHT22;11540;52.130;5.648;2022-08-04T00:15:57;20.70;99.90
22747;DHT22;11540;52.130;5.648;2022-08-04T00:18:26;20.70;99.90
22747;DHT22;11540;52.130;5.648;2022-08-04T00:20:59;20.70;99.90
22747;DHT22;11540;52.130;5.648;2022-08-04T00:23:28;20.70;99.90
22747;DHT22;11540;52.130;5.648;2022-08-04T00:25:55;20.60;99.90
22747;DHT22;11540;52.130;5.648;2022-08-04T00:28:21;20.60;99.90
22747;DHT22;11540;52.130;5.648;2022-08-04T00:30:47;20.60;99.90
22747;DHT22;11540;52.130;5.648;2022-08-04T00:33:18;20.60;99.90
22747;DHT22;11540;52.130;5.648;2022-08-04T00:35:46;20.50;99.90
22747;DHT22;11540;52.130;5.648;2022-08-04T00:38:14;20.50;99.90
22747;DHT22;11540;52.130;5.648;2022-08-04T00:54:41;20.50;99.90
22747;DHT22;11540;52.130;5.648;2022-08-04T00:57:29;20.40;99.90
22747;DHT22;11540;52.130;5.648;2022-08-04T01:05:19;20.40;99.90
22747;DHT22;11540;52.130;5.648;2022-08-04T01:08:18;20.30;99.90
22747;DHT22;11540;52.130;5.648;2022-08-04T01:16:24;19.90;99.90
22747;DHT22;11540;52.130;5.648;2022-08-04T01:19:15;19.70;99.90
22747;DHT22;11540;52.130;5.648;2022-08-04T01:22:27;19.70;99.90
22747;DHT22;11540;52.130;5.648;2022-08-04T01:30:29;19.60;99.90
22747;DHT22;11540;52.130;5.648;2022-08-04T01:33:01;19.50;99.90
22747;DHT22;11540;52.130;5.648;2022-08-04T01:35:50;19.50;99.90
22747;DHT22;11540;52.130;5.648;2022-08-04T01:38:28;19.50;99.90
22747;DHT22;11540;52.130;5.648;2022-08-04T01:41:14;19.50;99.90
22747;DHT22;11540;52.130;5.648;2022-08-04T01:43:42;19.50;99.90
22747;DHT22;11540;52.130;5.648;2022-08-04T01:46:13;19.40;99.90
22747;DHT22;11540;52.130;5.648;2022-08-04T01:48:44;19.50;99.90
22747;DHT22;11540;52.130;5.648;2022-08-04T01:51:09;19.40;99.90
22747;DHT22;11540;52.130;5.648;2022-08-04T01:53:38;19.50;99.90
22747;DHT22;11540;52.130;5.648;2022-08-04T01:56:07;19.40;99.90
22747;DHT22;11540;52.130;5.648;2022-08-04T01:58:34;19.50;99.90
22747;DHT22;11540;52.130;5.648;2022-08-04T02:01:03;19.40;99.90
22747;DHT22;11540;52.130;5.648;2022-08-04T02:03:31;19.30;99.90
22747;DHT22;11540;52.130;5.648;2022-08-04T02:06:17;19.20;99.90
22747;DHT22;11540;52.130;5.648;2022-08-04T02:09:02;19.20;99.90
22747;DHT22;11540;52.130;5.648;2022-08-04T02:11:29;19.20;99.90
22747;DHT22;11540;52.130;5.648;2022-08-04T02:17:04;19.10;99.90
22747;DHT22;11540;52.130;5.648;2022-08-04T02:19:36;19.00;99.90
22747;DHT22;11540;52.130;5.648;2022-08-04T02:22:08;18.90;99.90
22747;DHT22;11540;52.130;5.648;2022-08-04T02:24:45;18.90;99.90
22747;DHT22;11540;52.130;5.648;2022-08-04T02:27:13;18.80;99.90
22747;DHT22;11540;52.130;5.648;2022-08-04T02:29:50;18.80;99.90
22747;DHT22;11540;52.130;5.648;2022-08-04T02:32:26;18.80;99.90
22747;DHT22;11540;52.130;5.648;2022-08-04T02:34:53;18.90;99.90
22747;DHT22;11540;52.130;5.648;2022-08-04T02:37:22;18.80;99.90
22747;DHT22;11540;52.130;5.648;2022-08-04T02:39:50;18.80;99.90
22747;DHT22;11540;52.130;5.648;2022-08-04T02:42:17;18.80;99.90
22747;DHT22;11540;52.130;5.648;2022-08-04T02:44:50;18.80;99.90
22747;DHT22;11540;52.130;5.648;2022-08-04T02:47:16;18.80;99.90
22747;DHT22;11540;52.130;5.648;2022-08-04T02:49:43;18.90;99.90
22747;DHT22;11540;52.130;5.648;2022-08-04T02:52:09;18.80;99.90
22747;DHT22;11540;52.130;5.648;2022-08-04T02:54:40;18.60;99.90
22747;DHT22;11540;52.130;5.648;2022-08-04T02:57:16;18.50;99.90
22747;DHT22;11540;52.130;5.648;2022-08-04T02:59:55;18.50;99.90
22747;DHT22;11540;52.130;5.648;2022-08-04T03:02:28;18.50;99.90
22747;DHT22;11540;52.130;5.648;2022-08-04T03:04:59;18.50;99.90
22747;DHT22;11540;52.130;5.648;2022-08-04T03:15:16;18.40;99.90
22747;DHT22;11540;52.130;5.648;2022-08-04T03:17:58;18.40;99.90
22747;DHT22;11540;52.130;5.648;2022-08-04T03:20:48;18.20;99.90
22747;DHT22;11540;52.130;5.648;2022-08-04T03:37:59;18.10;99.90
22747;DHT22;11540;52.130;5.648;2022-08-04T03:46:59;18.20;99.90
22747;DHT22;11540;52.130;5.648;2022-08-04T03:53:15;18.10;99.90
22747;DHT22;11540;52.130;5.648;2022-08-04T04:07:22;18.00;99.90
22747;DHT22;11540;52.130;5.648;2022-08-04T04:15:19;17.80;99.90
22747;DHT22;11540;52.130;5.648;2022-08-04T04:33:02;18.10;99.90
22747;DHT22;11540;52.130;5.648;2022-08-04T04:38:18;18.10;99.90
22747;DHT22;11540;52.130;5.648;2022-08-04T04:40:55;18.10;99.90
22747;DHT22;11540;52.130;5.648;2022-08-04T04:43:29;18.00;99.90
22747;DHT22;11540;52.130;5.648;2022-08-04T04:48:35;18.10;99.90
22747;DHT22;11540;52.130;5.648;2022-08-04T04:51:05;18.10;99.90
22747;DHT22;11540;52.130;5.648;2022-08-04T04:53:48;18.20;99.90
22747;DHT22;11540;52.130;5.648;2022-08-04T04:56:26;18.20;99.90
22747;DHT22;11540;52.130;5.648;2022-08-04T04:58:53;18.20;99.90
22747;DHT22;11540;52.130;5.648;2022-08-04T05:16:46;18.90;99.90
22747;DHT22;11540;52.130;5.648;2022-08-04T05:19:27;19.00;99.90
22747;DHT22;11540;52.130;5.648;2022-08-04T05:22:00;19.10;99.90
22747;DHT22;11540;52.130;5.648;2022-08-04T05:24:26;19.30;99.90
22747;DHT22;11540;52.130;5.648;2022-08-04T05:26:54;19.40;99.90
22747;DHT22;11540;52.130;5.648;2022-08-04T05:29:28;19.50;99.90
22747;DHT22;11540;52.130;5.648;2022-08-04T05:31:53;19.70;99.90
22747;DHT22;11540;52.130;5.648;2022-08-04T05:34:25;19.80;99.90
22747;DHT22;11540;52.130;5.648;2022-08-04T05:36:53;20.00;99.90
22747;DHT22;11540;52.130;5.648;2022-08-04T05:39:30;20.20;99.90
22747;DHT22;11540;52.130;5.648;2022-08-04T05:41:57;20.40;99.90
22747;DHT22;11540;52.130;5.648;2022-08-04T05:44:24;20.60;99.90
22747;DHT22;11540;52.130;5.648;2022-08-04T05:46:51;20.70;99.90
22747;DHT22;11540;52.130;5.648;2022-08-04T05:49:17;20.90;99.90
22747;DHT22;11540;52.130;5.648;2022-08-04T05:51:43;21.10;99.90
22747;DHT22;11540;52.130;5.648;2022-08-04T05:54:09;21.30;99.90
22747;DHT22;11540;52.130;5.648;2022-08-04T05:56:35;21.50;99.90
22747;DHT22;11540;52.130;5.648;2022-08-04T05:59:02;21.70;99.90
22747;DHT22;11540;52.130;5.648;2022-08-04T06:01:28;21.90;99.90
22747;DHT22;11540;52.130;5.648;2022-08-04T06:03:55;22.00;99.90
22747;DHT22;11540;52.130;5.648;2022-08-04T06:06:21;22.20;99.90
22747;DHT22;11540;52.130;5.648;2022-08-04T06:08:47;22.30;99.90
22747;DHT22;11540;52.130;5.648;2022-08-04T06:11:12;22.40;99.90
22747;DHT22;11540;52.130;5.648;2022-08-04T06:13:52;22.50;99.90
22747;DHT22;11540;52.130;5.648;2022-08-04T06:16:20;22.60;99.90
22747;DHT22;11540;52.130;5.648;2022-08-04T06:18:47;22.80;99.90
22747;DHT22;11540;52.130;5.648;2022-08-04T06:21:13;22.90;99.90
22747;DHT22;11540;52.130;5.648;2022-08-04T06:23:39;23.00;99.90
22747;DHT22;11540;52.130;5.648;2022-08-04T06:26:06;23.20;99.90
22747;DHT22;11540;52.130;5.648;2022-08-04T06:28:33;23.30;99.90
22747;DHT22;11540;52.130;5.648;2022-08-04T06:30:59;23.40;99.90
22747;DHT22;11540;52.130;5.648;2022-08-04T06:33:29;23.50;99.90
22747;DHT22;11540;52.130;5.648;2022-08-04T06:36:00;23.70;99.90
22747;DHT22;11540;52.130;5.648;2022-08-04T06:38:29;23.70;99.90
22747;DHT22;11540;52.130;5.648;2022-08-04T06:40:56;23.80;99.90
22747;DHT22;11540;52.130;5.648;2022-08-04T06:43:26;23.80;99.90
22747;DHT22;11540;52.130;5.648;2022-08-04T06:45:54;23.90;99.90
22747;DHT22;11540;52.130;5.648;2022-08-04T06:48:21;24.00;99.90
22747;DHT22;11540;52.130;5.648;2022-08-04T06:50:50;24.00;99.90
22747;DHT22;11540;52.130;5.648;2022-08-04T06:53:16;23.90;99.90
22747;DHT22;11540;52.130;5.648;2022-08-04T06:55:44;24.00;99.90
22747;DHT22;11540;52.130;5.648;2022-08-04T06:58:10;23.90;99.90
22747;DHT22;11540;52.130;5.648;2022-08-04T07:00:38;24.00;99.90
22747;DHT22;11540;52.130;5.648;2022-08-04T07:03:05;24.10;99.90
22747;DHT22;11540;52.130;5.648;2022-08-04T07:05:32;24.20;99.90
22747;DHT22;11540;52.130;5.648;2022-08-04T07:07:58;24.20;99.90
22747;DHT22;11540;52.130;5.648;2022-08-04T07:10:25;24.20;99.90
22747;DHT22;11540;52.130;5.648;2022-08-04T07:12:52;24.30;99.90
22747;DHT22;11540;52.130;5.648;2022-08-04T07:15:18;24.40;99.90
22747;DHT22;11540;52.130;5.648;2022-08-04T07:17:45;24.40;99.90
22747;DHT22;11540;52.130;5.648;2022-08-04T07:20:11;24.40;99.90
22747;DHT22;11540;52.130;5.648;2022-08-04T07:22:37;24.50;99.90
22747;DHT22;11540;52.130;5.648;2022-08-04T07:25:08;24.60;99.90
22747;DHT22;11540;52.130;5.648;2022-08-04T07:27:34;24.60;99.90
22747;DHT22;11540;52.130;5.648;2022-08-04T07:30:01;24.60;99.90
22747;DHT22;11540;52.130;5.648;2022-08-04T07:32:27;24.60;99.90
22747;DHT22;11540;52.130;5.648;2022-08-04T07:34:53;24.60;99.90
22747;DHT22;11540;52.130;5.648;2022-08-04T07:37:19;24.70;99.90
22747;DHT22;11540;52.130;5.648;2022-08-04T07:39:44;24.90;99.90
22747;DHT22;11540;52.130;5.648;2022-08-04T07:42:10;25.00;99.90
22747;DHT22;11540;52.130;5.648;2022-08-04T07:44:36;25.10;99.90
22747;DHT22;11540;52.130;5.648;2022-08-04T07:47:05;25.30;99.90
22747;DHT22;11540;52.130;5.648;2022-08-04T07:49:31;25.50;99.90
22747;DHT22;11540;52.130;5.648;2022-08-04T07:51:58;25.70;99.90
22747;DHT22;11540;52.130;5.648;2022-08-04T07:54:24;25.70;99.90
22747;DHT22;11540;52.130;5.648;2022-08-04T07:56:51;25.70;99.90
22747;DHT22;11540;52.130;5.648;2022-08-04T07:59:18;25.50;99.90
22747;DHT22;11540;52.130;5.648;2022-08-04T08:01:44;25.50;99.90
22747;DHT22;11540;52.130;5.648;2022-08-04T08:04:11;25.70;99.90
22747;DHT22;11540;52.130;5.648;2022-08-04T08:06:37;25.70;99.90
22747;DHT22;11540;52.130;5.648;2022-08-04T08:09:37;25.60;99.90
22747;DHT22;11540;52.130;5.648;2022-08-04T08:11:56;25.60;99.90
22747;DHT22;11540;52.130;5.648;2022-08-04T08:14:22;25.50;99.90
22747;DHT22;11540;52.130;5.648;2022-08-04T08:16:47;25.50;99.90
22747;DHT22;11540;52.130;5.648;2022-08-04T08:19:13;25.60;99.90
22747;DHT22;11540;52.130;5.648;2022-08-04T08:21:39;25.60;99.90
22747;DHT22;11540;52.130;5.648;2022-08-04T08:24:05;25.50;99.90
22747;DHT22;11540;52.130;5.648;2022-08-04T08:26:30;25.50;99.90
22747;DHT22;11540;52.130;5.648;2022-08-04T08:28:56;25.70;99.90
22747;DHT22;11540;52.130;5.648;2022-08-04T08:31:22;26.00;99.90
22747;DHT22;11540;52.130;5.648;2022-08-04T08:33:47;26.20;99.90
22747;DHT22;11540;52.130;5.648;2022-08-04T08:36:22;26.20;99.90
22747;DHT22;11540;52.130;5.648;2022-08-04T08:41:19;26.60;99.90
22747;DHT22;11540;52.130;5.648;2022-08-04T08:55:35;26.90;99.90
22747;DHT22;11540;52.130;5.648;2022-08-04T08:58:56;27.20;99.90
22747;DHT22;11540;52.130;5.648;2022-08-04T09:07:02;27.90;99.90
22747;DHT22;11540;52.130;5.648;2022-08-04T09:17:21;28.60;99.90
22747;DHT22;11540;52.130;5.648;2022-08-04T09:19:55;28.60;99.90
22747;DHT22;11540;52.130;5.648;2022-08-04T09:25:21;28.20;99.90
22747;DHT22;11540;52.130;5.648;2022-08-04T09:27:50;28.30;99.90
22747;DHT22;11540;52.130;5.648;2022-08-04T09:36:09;28.80;99.90
22747;DHT22;11540;52.130;5.648;2022-08-04T09:38:46;29.10;99.90
22747;DHT22;11540;52.130;5.648;2022-08-04T09:41:35;29.20;99.90
22747;DHT22;11540;52.130;5.648;2022-08-04T09:44:30;29.10;99.90
22747;DHT22;11540;52.130;5.648;2022-08-04T09:49:38;28.80;99.90
22747;DHT22;11540;52.130;5.648;2022-08-04T10:01:21;28.10;99.90
22747;DHT22;11540;52.130;5.648;2022-08-04T10:04:05;28.00;99.90
22747;DHT22;11540;52.130;5.648;2022-08-04T10:06:44;28.00;99.90
22747;DHT22;11540;52.130;5.648;2022-08-04T10:12:07;27.60;99.90
22747;DHT22;11540;52.130;5.648;2022-08-04T10:17:41;27.90;99.90
22747;DHT22;11540;52.130;5.648;2022-08-04T10:23:18;28.00;99.90
22747;DHT22;11540;52.130;5.648;2022-08-04T10:28:19;28.10;99.90
22747;DHT22;11540;52.130;5.648;2022-08-04T10:30:53;27.80;99.90
22747;DHT22;11540;52.130;5.648;2022-08-04T10:33:46;27.70;99.90
22747;DHT22;11540;52.130;5.648;2022-08-04T10:36:17;27.40;99.90
22747;DHT22;11540;52.130;5.648;2022-08-04T10:38:57;27.10;99.90
22747;DHT22;11540;52.130;5.648;2022-08-04T10:41:51;27.00;99.90
22747;DHT22;11540;52.130;5.648;2022-08-04T10:44:39;26.60;99.90
22747;DHT22;11540;52.130;5.648;2022-08-04T10:47:15;26.50;99.90
22747;DHT22;11540;52.130;5.648;2022-08-04T10:49:50;26.30;99.90
22747;DHT22;11540;52.130;5.648;2022-08-04T10:52:41;26.30;99.90
22747;DHT22;11540;52.130;5.648;2022-08-04T10:55:18;26.20;99.90
22747;DHT22;11540;52.130;5.648;2022-08-04T10:58:04;26.10;99.90
22747;DHT22;11540;52.130;5.648;2022-08-04T11:00:34;26.10;99.90
22747;DHT22;11540;52.130;5.648;2022-08-04T11:03:17;25.90;99.90
22747;DHT22;11540;52.130;5.648;2022-08-04T11:05:55;25.90;99.90
22747;DHT22;11540;52.130;5.648;2022-08-04T11:11:26;25.70;99.90
22747;DHT22;11540;52.130;5.648;2022-08-04T11:14:07;25.60;99.90
22747;DHT22;11540;52.130;5.648;2022-08-04T11:22:30;25.50;99.90
22747;DHT22;11540;52.130;5.648;2022-08-04T11:25:17;25.20;99.90
22747;DHT22;11540;52.130;5.648;2022-08-04T11:28:18;24.90;99.90
22747;DHT22;11540;52.130;5.648;2022-08-04T11:31:03;24.80;99.90
22747;DHT22;11540;52.130;5.648;2022-08-04T11:33:46;24.70;99.90
22747;DHT22;11540;52.130;5.648;2022-08-04T11:36:40;24.60;99.90
22747;DHT22;11540;52.130;5.648;2022-08-04T11:39:27;24.70;99.90
22747;DHT22;11540;52.130;5.648;2022-08-04T11:42:05;24.60;99.90
22747;DHT22;11540;52.130;5.648;2022-08-04T11:44:51;24.70;99.90
22747;DHT22;11540;52.130;5.648;2022-08-04T11:47:29;24.80;99.90
22747;DHT22;11540;52.130;5.648;2022-08-04T11:52:47;25.40;99.90
22747;DHT22;11540;52.130;5.648;2022-08-04T11:55:16;25.70;99.90
22747;DHT22;11540;52.130;5.648;2022-08-04T11:57:43;25.80;99.90
22747;DHT22;11540;52.130;5.648;2022-08-04T12:00:12;26.00;99.90
22747;DHT22;11540;52.130;5.648;2022-08-04T12:05:46;26.60;99.90
22747;DHT22;11540;52.130;5.648;2022-08-04T12:09:06;26.70;99.90
22747;DHT22;11540;52.130;5.648;2022-08-04T12:14:25;27.30;99.90
22747;DHT22;11540;52.130;5.648;2022-08-04T12:16:58;27.90;99.90
22747;DHT22;11540;52.130;5.648;2022-08-04T12:19:49;28.80;99.90
22747;DHT22;11540;52.130;5.648;2022-08-04T12:22:20;29.70;99.90
22747;DHT22;11540;52.130;5.648;2022-08-04T12:27:41;30.80;99.90
22747;DHT22;11540;52.130;5.648;2022-08-04T12:30:10;31.10;99.90
22747;DHT22;11540;52.130;5.648;2022-08-04T12:35:47;31.10;99.90
22747;DHT22;11540;52.130;5.648;2022-08-04T12:38:19;31.00;99.90
22747;DHT22;11540;52.130;5.648;2022-08-04T12:40:48;31.00;99.90
22747;DHT22;11540;52.130;5.648;2022-08-04T12:45:50;30.80;99.90
22747;DHT22;11540;52.130;5.648;2022-08-04T12:48:17;31.00;99.90
22747;DHT22;11540;52.130;5.648;2022-08-04T12:50:53;31.10;99.90
22747;DHT22;11540;52.130;5.648;2022-08-04T12:53:22;31.50;99.90
22747;DHT22;11540;52.130;5.648;2022-08-04T12:55:51;31.80;99.90
22747;DHT22;11540;52.130;5.648;2022-08-04T12:58:23;32.50;99.90
22747;DHT22;11540;52.130;5.648;2022-08-04T13:00:59;32.50;99.90
22747;DHT22;11540;52.130;5.648;2022-08-04T13:03:40;33.00;99.90
22747;DHT22;11540;52.130;5.648;2022-08-04T13:06:07;33.30;99.90
22747;DHT22;11540;52.130;5.648;2022-08-04T13:08:35;33.60;99.90
22747;DHT22;11540;52.130;5.648;2022-08-04T13:11:02;33.60;99.90
22747;DHT22;11540;52.130;5.648;2022-08-04T13:13:30;33.60;99.90
22747;DHT22;11540;52.130;5.648;2022-08-04T13:15:58;33.40;99.90
22747;DHT22;11540;52.130;5.648;2022-08-04T13:18:28;32.50;99.90
22747;DHT22;11540;52.130;5.648;2022-08-04T13:20:54;32.00;99.90
22747;DHT22;11540;52.130;5.648;2022-08-04T13:23:20;32.00;99.90
22747;DHT22;11540;52.130;5.648;2022-08-04T13:25:46;32.30;99.90
22747;DHT22;11540;52.130;5.648;2022-08-04T13:28:13;32.50;99.90
22747;DHT22;11540;52.130;5.648;2022-08-04T13:30:39;33.00;99.90
22747;DHT22;11540;52.130;5.648;2022-08-04T13:33:08;33.30;99.90
22747;DHT22;11540;52.130;5.648;2022-08-04T13:35:33;33.60;99.90
22747;DHT22;11540;52.130;5.648;2022-08-04T13:38:00;34.30;99.90
22747;DHT22;11540;52.130;5.648;2022-08-04T13:40:26;33.60;99.90
22747;DHT22;11540;52.130;5.648;2022-08-04T13:42:52;32.90;99.90
22747;DHT22;11540;52.130;5.648;2022-08-04T13:45:21;32.70;99.90
22747;DHT22;11540;52.130;5.648;2022-08-04T13:47:47;32.80;99.90
22747;DHT22;11540;52.130;5.648;2022-08-04T13:50:14;33.40;99.90
22747;DHT22;11540;52.130;5.648;2022-08-04T13:52:41;33.20;99.90
22747;DHT22;11540;52.130;5.648;2022-08-04T13:55:08;32.90;99.90
22747;DHT22;11540;52.130;5.648;2022-08-04T13:57:43;32.60;99.90
22747;DHT22;11540;52.130;5.648;2022-08-04T14:00:09;32.60;99.90
22747;DHT22;11540;52.130;5.648;2022-08-04T14:02:39;32.80;99.90
22747;DHT22;11540;52.130;5.648;2022-08-04T14:05:13;32.80;99.90
22747;DHT22;11540;52.130;5.648;2022-08-04T14:07:50;32.70;99.90
22747;DHT22;11540;52.130;5.648;2022-08-04T14:10:18;32.50;99.90
22747;DHT22;11540;52.130;5.648;2022-08-04T14:12:44;32.60;99.90
22747;DHT22;11540;52.130;5.648;2022-08-04T14:15:28;32.90;99.90
22747;DHT22;11540;52.130;5.648;2022-08-04T14:17:53;33.30;99.90
22747;DHT22;11540;52.130;5.648;2022-08-04T14:20:20;33.60;99.90
22747;DHT22;11540;52.130;5.648;2022-08-04T14:22:46;33.60;99.90
22747;DHT22;11540;52.130;5.648;2022-08-04T14:25:12;33.40;99.90
22747;DHT22;11540;52.130;5.648;2022-08-04T14:27:40;34.00;99.90
22747;DHT22;11540;52.130;5.648;2022-08-04T14:30:06;34.20;99.90
22747;DHT22;11540;52.130;5.648;2022-08-04T14:32:32;34.00;99.90
22747;DHT22;11540;52.130;5.648;2022-08-04T14:34:57;34.40;99.90
22747;DHT22;11540;52.130;5.648;2022-08-04T14:37:23;33.80;99.90
22747;DHT22;11540;52.130;5.648;2022-08-04T14:39:49;33.70;99.90
22747;DHT22;11540;52.130;5.648;2022-08-04T14:42:16;33.20;99.90
22747;DHT22;11540;52.130;5.648;2022-08-04T14:44:51;32.70;99.90
22747;DHT22;11540;52.130;5.648;2022-08-04T14:47:17;32.20;99.90
22747;DHT22;11540;52.130;5.648;2022-08-04T14:49:53;32.10;99.90
22747;DHT22;11540;52.130;5.648;2022-08-04T14:52:21;32.10;99.90
22747;DHT22;11540;52.130;5.648;2022-08-04T14:54:47;31.90;99.90
22747;DHT22;11540;52.130;5.648;2022-08-04T14:57:14;31.60;99.90
22747;DHT22;11540;52.130;5.648;2022-08-04T14:59:43;31.70;99.90
22747;DHT22;11540;52.130;5.648;2022-08-04T15:02:10;31.70;99.90
22747;DHT22;11540;52.130;5.648;2022-08-04T15:04:36;31.60;99.90
22747;DHT22;11540;52.130;5.648;2022-08-04T15:07:02;31.60;99.90
22747;DHT22;11540;52.130;5.648;2022-08-04T15:09:28;31.60;99.90
22747;DHT22;11540;52.130;5.648;2022-08-04T15:11:53;31.40;99.90
22747;DHT22;11540;52.130;5.648;2022-08-04T15:14:19;31.20;99.90
22747;DHT22;11540;52.130;5.648;2022-08-04T15:16:45;31.10;99.90
22747;DHT22;11540;52.130;5.648;2022-08-04T15:19:10;31.10;99.90
22747;DHT22;11540;52.130;5.648;2022-08-04T15:21:36;31.00;99.90
22747;DHT22;11540;52.130;5.648;2022-08-04T15:24:02;30.80;99.90
22747;DHT22;11540;52.130;5.648;2022-08-04T15:26:30;30.60;99.90
22747;DHT22;11540;52.130;5.648;2022-08-04T15:28:58;30.10;99.90
22747;DHT22;11540;52.130;5.648;2022-08-04T15:31:26;29.90;99.90
22747;DHT22;11540;52.130;5.648;2022-08-04T15:33:54;29.80;99.90
22747;DHT22;11540;52.130;5.648;2022-08-04T15:36:36;29.80;99.90
22747;DHT22;11540;52.130;5.648;2022-08-04T15:39:11;29.90;99.90
22747;DHT22;11540;52.130;5.648;2022-08-04T15:41:54;29.70;99.90
22747;DHT22;11540;52.130;5.648;2022-08-04T15:44:45;29.50;99.90
22747;DHT22;11540;52.130;5.648;2022-08-04T15:47:14;29.50;99.90
22747;DHT22;11540;52.130;5.648;2022-08-04T15:49:41;29.40;99.90
22747;DHT22;11540;52.130;5.648;2022-08-04T15:52:09;29.00;99.90
22747;DHT22;11540;52.130;5.648;2022-08-04T15:54:35;29.10;99.90
22747;DHT22;11540;52.130;5.648;2022-08-04T15:57:02;29.40;99.90
22747;DHT22;11540;52.130;5.648;2022-08-04T15:59:57;29.40;99.90
22747;DHT22;11540;52.130;5.648;2022-08-04T16:08:07;28.90;99.90
22747;DHT22;11540;52.130;5.648;2022-08-04T16:10:40;28.60;99.90
22747;DHT22;11540;52.130;5.648;2022-08-04T16:13:09;28.60;99.90
22747;DHT22;11540;52.130;5.648;2022-08-04T16:15:43;28.50;99.90
22747;DHT22;11540;52.130;5.648;2022-08-04T16:18:10;28.30;99.90
22747;DHT22;11540;52.130;5.648;2022-08-04T16:20:36;28.30;99.90
22747;DHT22;11540;52.130;5.648;2022-08-04T16:25:44;28.10;99.90
22747;DHT22;11540;52.130;5.648;2022-08-04T16:31:01;28.40;99.90
22747;DHT22;11540;52.130;5.648;2022-08-04T16:33:27;28.40;99.90
22747;DHT22;11540;52.130;5.648;2022-08-04T16:35:55;28.50;99.90
22747;DHT22;11540;52.130;5.648;2022-08-04T16:38:20;28.70;99.90
22747;DHT22;11540;52.130;5.648;2022-08-04T16:40:56;28.70;99.90
22747;DHT22;11540;52.130;5.648;2022-08-04T16:43:22;28.90;99.90
22747;DHT22;11540;52.130;5.648;2022-08-04T16:46:02;28.60;99.90
22747;DHT22;11540;52.130;5.648;2022-08-04T16:48:34;28.50;99.90
22747;DHT22;11540;52.130;5.648;2022-08-04T16:51:10;28.30;99.90
22747;DHT22;11540;52.130;5.648;2022-08-04T16:53:43;28.20;99.90
22747;DHT22;11540;52.130;5.648;2022-08-04T16:56:13;28.20;99.90
22747;DHT22;11540;52.130;5.648;2022-08-04T16:58:40;27.90;99.90
22747;DHT22;11540;52.130;5.648;2022-08-04T17:01:15;27.70;99.90
22747;DHT22;11540;52.130;5.648;2022-08-04T17:03:51;27.60;99.90
22747;DHT22;11540;52.130;5.648;2022-08-04T17:06:17;27.50;99.90
22747;DHT22;11540;52.130;5.648;2022-08-04T17:08:44;27.30;99.90
22747;DHT22;11540;52.130;5.648;2022-08-04T17:11:11;27.20;99.90
22747;DHT22;11540;52.130;5.648;2022-08-04T17:13:40;27.20;99.90
22747;DHT22;11540;52.130;5.648;2022-08-04T17:16:08;27.30;99.90
22747;DHT22;11540;52.130;5.648;2022-08-04T17:18:40;27.50;99.90
22747;DHT22;11540;52.130;5.648;2022-08-04T17:21:27;27.30;99.90
22747;DHT22;11540;52.130;5.648;2022-08-04T17:23:57;27.30;99.90
22747;DHT22;11540;52.130;5.648;2022-08-04T17:26:31;27.20;99.90
22747;DHT22;11540;52.130;5.648;2022-08-04T17:28:57;27.00;99.90
22747;DHT22;11540;52.130;5.648;2022-08-04T17:31:26;26.90;99.90
22747;DHT22;11540;52.130;5.648;2022-08-04T17:33:53;26.70;99.90
22747;DHT22;11540;52.130;5.648;2022-08-04T17:36:23;26.40;99.90
22747;DHT22;11540;52.130;5.648;2022-08-04T17:38:52;26.40;99.90
22747;DHT22;11540;52.130;5.648;2022-08-04T17:41:22;26.40;99.90
22747;DHT22;11540;52.130;5.648;2022-08-04T17:43:53;26.10;99.90
22747;DHT22;11540;52.130;5.648;2022-08-04T17:46:39;25.90;99.90
22747;DHT22;11540;52.130;5.648;2022-08-04T17:51:51;25.40;99.90
22747;DHT22;11540;52.130;5.648;2022-08-04T17:54:29;25.40;99.90
22747;DHT22;11540;52.130;5.648;2022-08-04T17:57:13;25.30;99.90
22747;DHT22;11540;52.130;5.648;2022-08-04T17:59:42;25.40;99.90
22747;DHT22;11540;52.130;5.648;2022-08-04T18:02:08;25.40;99.90
22747;DHT22;11540;52.130;5.648;2022-08-04T18:04:37;25.30;99.90
22747;DHT22;11540;52.130;5.648;2022-08-04T18:07:32;25.30;99.90
22747;DHT22;11540;52.130;5.648;2022-08-04T18:09:58;25.30;99.90
22747;DHT22;11540;52.130;5.648;2022-08-04T18:14:53;25.20;99.90
22747;DHT22;11540;52.130;5.648;2022-08-04T18:19:59;25.10;99.90
22747;DHT22;11540;52.130;5.648;2022-08-04T18:22:25;25.00;99.90
22747;DHT22;11540;52.130;5.648;2022-08-04T18:24:51;24.80;99.90
22747;DHT22;11540;52.130;5.648;2022-08-04T18:27:21;24.70;99.90
22747;DHT22;11540;52.130;5.648;2022-08-04T18:29:48;24.60;99.90
22747;DHT22;11540;52.130;5.648;2022-08-04T18:32:13;24.30;99.90
22747;DHT22;11540;52.130;5.648;2022-08-04T18:34:39;24.30;99.90
22747;DHT22;11540;52.130;5.648;2022-08-04T18:37:05;24.10;99.90
22747;DHT22;11540;52.130;5.648;2022-08-04T18:39:31;24.10;99.90
22747;DHT22;11540;52.130;5.648;2022-08-04T18:41:56;24.00;99.90
22747;DHT22;11540;52.130;5.648;2022-08-04T18:44:22;24.00;99.90
22747;DHT22;11540;52.130;5.648;2022-08-04T18:46:48;24.00;99.90
22747;DHT22;11540;52.130;5.648;2022-08-04T18:49:14;24.00;99.90
22747;DHT22;11540;52.130;5.648;2022-08-04T18:51:39;23.90;99.90
22747;DHT22;11540;52.130;5.648;2022-08-04T18:54:05;24.00;99.90
22747;DHT22;11540;52.130;5.648;2022-08-04T18:56:32;23.90;99.90
22747;DHT22;11540;52.130;5.648;2022-08-04T18:58:59;23.80;99.90
22747;DHT22;11540;52.130;5.648;2022-08-04T19:01:25;23.70;99.90
22747;DHT22;11540;52.130;5.648;2022-08-04T19:03:50;23.60;99.90
22747;DHT22;11540;52.130;5.648;2022-08-04T19:06:17;23.50;99.90
22747;DHT22;11540;52.130;5.648;2022-08-04T19:08:43;23.40;99.90
22747;DHT22;11540;52.130;5.648;2022-08-04T19:11:09;23.30;99.90
22747;DHT22;11540;52.130;5.648;2022-08-04T19:13:35;23.20;99.90
22747;DHT22;11540;52.130;5.648;2022-08-04T19:16:00;23.10;99.90
22747;DHT22;11540;52.130;5.648;2022-08-04T19:18:26;23.00;99.90
22747;DHT22;11540;52.130;5.648;2022-08-04T19:20:51;23.00;99.90
22747;DHT22;11540;52.130;5.648;2022-08-04T19:23:18;23.00;99.90
22747;DHT22;11540;52.130;5.648;2022-08-04T19:25:45;22.90;99.90
22747;DHT22;11540;52.130;5.648;2022-08-04T19:28:10;22.80;99.90
22747;DHT22;11540;52.130;5.648;2022-08-04T19:30:36;22.70;99.90
22747;DHT22;11540;52.130;5.648;2022-08-04T19:33:02;22.60;99.90
22747;DHT22;11540;52.130;5.648;2022-08-04T19:35:27;22.50;99.90
22747;DHT22;11540;52.130;5.648;2022-08-04T19:37:53;22.50;99.90
22747;DHT22;11540;52.130;5.648;2022-08-04T19:40:19;22.50;99.90